createdAt,value
2023-05-03T00:00:29.535Z,2.59
2023-05-03T00:03:14.623Z,2.48
2023-05-03T00:05:43.457Z,2.51
2023-05-03T00:08:12.511Z,2.43
2023-05-03T00:10:41.538Z,2.44
2023-05-03T00:13:10.700Z,2.46
2023-05-03T00:15:39.731Z,2.44
2023-05-03T00:18:08.997Z,2.43
2023-05-03T00:20:39.272Z,2.40
2023-05-03T00:23:08.880Z,2.36
2023-05-03T00:25:37.635Z,2.36
2023-05-03T00:28:06.850Z,2.35
2023-05-03T00:30:35.648Z,2.27
2023-05-03T00:33:05.023Z,2.24
2023-05-03T00:35:33.998Z,2.18
2023-05-03T00:38:04.862Z,2.15
2023-05-03T00:40:34.126Z,2.12
2023-05-03T00:43:03.235Z,2.08
2023-05-03T00:45:34.123Z,2.07
2023-05-03T00:48:03.432Z,2.04
2023-05-03T00:50:32.322Z,2.02
2023-05-03T00:53:01.804Z,1.98
2023-05-03T00:55:32.655Z,1.93
2023-05-03T00:58:01.856Z,1.93
2023-05-03T01:00:30.681Z,1.91
2023-05-03T01:02:59.956Z,1.86
2023-05-03T01:05:30.223Z,1.83
2023-05-03T01:08:03.249Z,1.81
2023-05-03T01:10:39.590Z,1.76
2023-05-03T01:13:13.269Z,1.74
2023-05-03T01:15:47.047Z,1.70
2023-05-03T01:18:17.651Z,1.64
2023-05-03T01:20:48.677Z,1.62
2023-05-03T01:23:22.881Z,1.59
2023-05-03T01:25:54.524Z,1.55
2023-05-03T01:28:23.718Z,1.53
2023-05-03T01:30:55.651Z,1.48
2023-05-03T01:33:27.586Z,1.44
2023-05-03T01:36:01.221Z,1.39
2023-05-03T01:38:34.243Z,1.34
2023-05-03T01:41:07.718Z,1.32
2023-05-03T01:43:37.323Z,1.34
2023-05-03T01:46:06.264Z,1.29
2023-05-03T01:48:35.535Z,1.27
2023-05-03T01:51:05.972Z,1.24
2023-05-03T01:53:35.158Z,1.21
2023-05-03T01:56:05.453Z,1.22
2023-05-03T01:58:35.456Z,1.17
2023-05-03T02:01:05.660Z,1.17
2023-05-03T02:03:35.140Z,1.13
2023-05-03T02:06:03.947Z,1.10
2023-05-03T02:08:33.227Z,1.08
2023-05-03T02:11:02.111Z,1.08
2023-05-03T02:13:33.057Z,1.04
2023-05-03T02:16:02.170Z,1.01
2023-05-03T02:18:32.351Z,1.01
2023-05-03T02:21:01.258Z,0.99
2023-05-03T02:23:30.271Z,0.97
2023-05-03T02:25:59.196Z,0.97
2023-05-03T02:28:28.221Z,0.96
2023-05-03T02:31:17.135Z,0.95
2023-05-03T02:33:47.699Z,0.93
2023-05-03T02:36:16.695Z,0.89
2023-05-03T02:38:46.953Z,0.86
2023-05-03T02:41:15.903Z,0.89
2023-05-03T02:43:45.125Z,0.96
2023-05-03T02:46:15.043Z,1.10
2023-05-03T02:48:44.257Z,1.16
2023-05-03T02:51:15.120Z,1.24
2023-05-03T02:53:44.344Z,1.26
2023-05-03T02:56:13.245Z,1.28
2023-05-03T02:58:42.327Z,1.26
2023-05-03T03:01:12.027Z,1.27
2023-05-03T03:03:42.258Z,1.32
2023-05-03T03:06:11.215Z,1.35
2023-05-03T03:08:42.266Z,1.37
2023-05-03T03:11:11.534Z,1.39
2023-05-03T03:13:41.349Z,1.45
2023-05-03T03:16:11.482Z,1.50
2023-05-03T03:18:40.735Z,1.53
2023-05-03T03:21:10.419Z,1.59
2023-05-03T03:23:39.854Z,1.65
2023-05-03T03:26:10.118Z,1.68
2023-05-03T03:28:39.324Z,1.76
2023-05-03T03:31:12.304Z,1.80
2023-05-03T03:33:42.626Z,1.88
2023-05-03T03:36:16.866Z,1.95
2023-05-03T03:38:48.718Z,2.01
2023-05-03T03:41:18.975Z,2.10
2023-05-03T03:43:48.608Z,2.16
2023-05-03T03:46:21.241Z,2.25
2023-05-03T03:48:54.430Z,2.35
2023-05-03T03:51:24.663Z,2.43
2023-05-03T03:53:54.428Z,2.52
2023-05-03T03:56:26.939Z,2.61
2023-05-03T03:59:00.873Z,2.71
2023-05-03T04:01:29.864Z,2.85
2023-05-03T04:03:59.362Z,2.97
2023-05-03T04:06:28.977Z,3.10
2023-05-03T04:08:59.586Z,3.25
2023-05-03T04:11:30.017Z,3.41
2023-05-03T04:14:04.505Z,3.52
2023-05-03T04:16:34.769Z,3.66
2023-05-03T04:19:06.226Z,3.81
2023-05-03T04:21:38.290Z,4.03
2023-05-03T04:24:07.938Z,4.21
2023-05-03T04:26:38.285Z,4.36
2023-05-03T04:29:20.028Z,4.52
2023-05-03T04:31:49.475Z,4.72
2023-05-03T04:34:19.567Z,4.82
2023-05-03T04:36:52.060Z,5.00
2023-05-03T04:39:22.122Z,5.14
2023-05-03T04:41:52.500Z,5.28
2023-05-03T04:44:22.415Z,5.44
2023-05-03T04:46:52.349Z,5.59
2023-05-03T04:49:21.799Z,5.70
2023-05-03T04:51:50.677Z,5.85
2023-05-03T04:54:21.159Z,5.99
2023-05-03T04:56:50.552Z,6.10
2023-05-03T04:59:22.674Z,6.24
2023-05-03T05:01:52.005Z,6.36
2023-05-03T05:04:21.294Z,6.48
2023-05-03T05:06:52.897Z,6.57
2023-05-03T05:09:26.638Z,6.70
2023-05-03T05:11:58.351Z,6.86
2023-05-03T05:14:34.840Z,6.96
2023-05-03T05:17:04.878Z,7.08
2023-05-03T05:19:34.064Z,7.16
2023-05-03T05:22:03.356Z,7.27
2023-05-03T05:24:41.930Z,7.35
2023-05-03T05:27:13.376Z,7.43
2023-05-03T05:29:44.459Z,7.54
2023-05-03T05:32:14.090Z,7.60
2023-05-03T05:34:45.785Z,7.67
2023-05-03T05:37:18.947Z,7.78
2023-05-03T05:39:49.915Z,7.82
2023-05-03T05:42:21.292Z,7.92
2023-05-03T05:44:52.425Z,8.01
2023-05-03T05:47:22.771Z,8.09
2023-05-03T05:49:55.110Z,8.21
2023-05-03T05:52:24.246Z,8.26
2023-05-03T05:54:53.715Z,8.32
2023-05-03T05:57:24.294Z,8.36
2023-05-03T05:59:55.302Z,8.41
2023-05-03T06:02:25.213Z,8.43
2023-05-03T06:04:54.555Z,8.51
2023-05-03T06:07:25.194Z,8.61
2023-05-03T06:09:54.460Z,8.70
2023-05-03T06:12:24.053Z,8.76
2023-05-03T06:15:02.468Z,8.81
2023-05-03T06:17:38.988Z,8.91
2023-05-03T06:20:12.049Z,9.01
2023-05-03T06:22:42.490Z,9.05
2023-05-03T06:25:16.289Z,9.15
2023-05-03T06:27:49.893Z,9.26
2023-05-03T06:30:23.824Z,9.35
2023-05-03T06:32:53.415Z,9.41
2023-05-03T06:35:23.125Z,9.49
2023-05-03T06:37:52.204Z,9.60
2023-05-03T06:40:24.778Z,9.68
2023-05-03T06:42:53.628Z,9.80
2023-05-03T06:45:35.545Z,9.88
2023-05-03T06:48:04.946Z,9.95
2023-05-03T06:50:34.027Z,10.04
2023-05-03T06:53:03.145Z,10.12
2023-05-03T06:55:33.048Z,10.16
2023-05-03T06:58:02.151Z,10.28
2023-05-03T07:00:31.299Z,10.32
2023-05-03T07:03:01.781Z,10.43
2023-05-03T07:05:31.410Z,10.48
2023-05-03T07:08:00.153Z,10.49
2023-05-03T07:10:31.250Z,10.52
2023-05-03T07:13:00.390Z,10.57
2023-05-03T07:15:29.636Z,10.63
2023-05-03T07:17:58.678Z,10.73
2023-05-03T07:20:29.338Z,10.79
2023-05-03T07:22:58.658Z,10.84
2023-05-03T07:25:27.838Z,10.91
2023-05-03T07:27:57.047Z,11.01
2023-05-03T07:30:26.240Z,11.04
2023-05-03T07:32:55.514Z,11.11
2023-05-03T07:35:26.738Z,11.21
2023-05-03T07:37:57.822Z,11.24
2023-05-03T07:40:28.812Z,11.27
2023-05-03T07:42:57.918Z,11.34
2023-05-03T07:45:27.184Z,11.43
2023-05-03T07:47:56.612Z,11.48
2023-05-03T07:50:25.875Z,11.53
2023-05-03T07:52:55.991Z,11.63
2023-05-03T07:55:26.831Z,11.73
2023-05-03T07:57:59.273Z,11.82
2023-05-03T08:00:28.622Z,11.88
2023-05-03T08:02:58.901Z,11.96
2023-05-03T08:05:29.588Z,12.04
2023-05-03T08:07:58.378Z,12.03
2023-05-03T08:10:28.842Z,12.03
2023-05-03T08:12:57.717Z,12.11
2023-05-03T08:15:26.797Z,12.14
2023-05-03T08:17:55.772Z,12.19
2023-05-03T08:20:27.272Z,12.22
2023-05-03T08:22:56.912Z,12.27
2023-05-03T08:25:26.177Z,12.34
2023-05-03T08:27:56.739Z,12.37
2023-05-03T08:30:26.821Z,12.43
2023-05-03T08:32:55.782Z,12.47
2023-05-03T08:35:25.386Z,12.55
2023-05-03T08:37:54.303Z,12.61
2023-05-03T08:40:24.069Z,12.65
2023-05-03T08:42:53.901Z,12.69
2023-05-03T08:45:24.785Z,12.75
2023-05-03T08:47:55.314Z,12.76
2023-05-03T08:50:25.990Z,12.77
2023-05-03T08:52:54.916Z,12.82
2023-05-03T08:55:23.935Z,12.89
2023-05-03T08:57:52.896Z,12.90
2023-05-03T09:00:28.528Z,12.93
2023-05-03T09:02:57.494Z,12.97
2023-05-03T09:05:39.011Z,13.01
2023-05-03T09:08:09.531Z,13.05
2023-05-03T09:10:39.606Z,13.13
2023-05-03T09:13:10.414Z,13.18
2023-05-03T09:15:41.385Z,13.20
2023-05-03T09:18:11.945Z,13.22
2023-05-03T09:20:42.453Z,13.26
2023-05-03T09:23:11.627Z,13.34
2023-05-03T09:25:44.886Z,13.43
2023-05-03T09:28:13.906Z,13.48
2023-05-03T09:30:44.559Z,13.57
2023-05-03T09:33:19.286Z,13.61
2023-05-03T09:35:56.999Z,13.65
2023-05-03T09:38:29.281Z,13.70
2023-05-03T09:40:58.661Z,13.77
2023-05-03T09:43:27.439Z,13.76
2023-05-03T09:46:08.989Z,13.79
2023-05-03T09:48:37.953Z,13.86
2023-05-03T09:51:07.829Z,13.94
2023-05-03T09:53:37.519Z,13.98
2023-05-03T09:56:09.065Z,14.02
2023-05-03T09:58:37.941Z,14.11
2023-05-03T10:01:09.896Z,14.13
2023-05-03T10:03:41.057Z,14.20
2023-05-03T10:06:17.194Z,14.29
2023-05-03T10:08:49.700Z,14.29
2023-05-03T10:11:19.605Z,14.28
2023-05-03T10:13:48.614Z,14.34
2023-05-03T10:16:22.021Z,14.42
2023-05-03T10:18:55.044Z,14.53
2023-05-03T10:21:29.143Z,14.60
2023-05-03T10:24:11.001Z,14.60
2023-05-03T10:26:41.461Z,14.67
2023-05-03T10:29:29.259Z,14.68
2023-05-03T10:32:01.024Z,14.68
2023-05-03T10:34:32.394Z,14.72
2023-05-03T10:37:02.933Z,14.77
2023-05-03T10:39:32.497Z,14.79
2023-05-03T10:42:04.310Z,14.82
2023-05-03T10:44:36.583Z,14.86
2023-05-03T10:47:18.864Z,14.94
2023-05-03T10:49:47.657Z,15.00
2023-05-03T10:52:35.195Z,15.01
2023-05-03T10:55:10.118Z,15.04
2023-05-03T10:57:40.647Z,15.11
2023-05-03T11:00:13.405Z,15.12
2023-05-03T11:02:48.451Z,15.27
2023-05-03T11:05:18.683Z,15.29
2023-05-03T11:07:49.364Z,15.28
2023-05-03T11:10:20.877Z,15.38
2023-05-03T11:12:50.674Z,15.49
2023-05-03T11:15:19.541Z,15.54
2023-05-03T11:17:50.030Z,15.62
2023-05-03T11:20:21.200Z,15.66
2023-05-03T11:22:51.357Z,15.70
2023-05-03T11:25:20.158Z,15.80
2023-05-03T11:27:51.364Z,15.81
2023-05-03T11:30:20.202Z,15.79
2023-05-03T11:32:51.921Z,15.90
2023-05-03T11:35:26.433Z,15.94
2023-05-03T11:37:56.806Z,15.98
2023-05-03T11:40:26.218Z,16.01
2023-05-03T11:42:56.084Z,16.04
2023-05-03T11:45:25.894Z,16.16
2023-05-03T11:47:57.199Z,16.18
2023-05-03T11:50:51.553Z,16.22
2023-05-03T11:53:22.932Z,16.35
2023-05-03T11:55:54.413Z,16.42
2023-05-03T11:58:24.914Z,16.57
2023-05-03T12:00:54.960Z,16.62
2023-05-03T12:03:30.842Z,16.75
2023-05-03T12:06:02.810Z,16.85
2023-05-03T12:08:36.092Z,17.03
2023-05-03T12:11:09.475Z,17.08
2023-05-03T12:13:40.718Z,17.19
2023-05-03T12:16:14.726Z,17.21
2023-05-03T12:18:51.719Z,17.21
2023-05-03T12:23:55.924Z,17.24
2023-05-03T12:26:27.496Z,17.22
2023-05-03T12:28:57.205Z,17.11
2023-05-03T12:31:29.105Z,17.11
2023-05-03T12:34:30.971Z,17.10
2023-05-03T12:36:49.181Z,17.17
2023-05-03T12:39:21.708Z,17.18
2023-05-03T12:44:24.205Z,17.21
2023-05-03T12:46:53.686Z,17.13
2023-05-03T12:49:24.418Z,17.00
2023-05-03T12:52:11.114Z,17.08
2023-05-03T12:54:42.816Z,16.99
2023-05-03T12:57:15.396Z,17.06
2023-05-03T12:59:52.227Z,16.98
2023-05-03T13:04:59.579Z,16.80
2023-05-03T13:07:32.218Z,16.77
2023-05-03T13:12:36.279Z,16.83
2023-05-03T13:15:06.314Z,16.81
2023-05-03T13:17:35.829Z,16.82
2023-05-03T13:20:08.227Z,16.78
2023-05-03T13:22:37.445Z,16.82
2023-05-03T13:25:07.239Z,16.87
2023-05-03T13:27:36.277Z,16.93
2023-05-03T13:30:06.071Z,16.86
2023-05-03T13:32:35.018Z,16.92
2023-05-03T13:35:05.468Z,16.96
2023-05-03T13:37:38.669Z,17.13
2023-05-03T13:40:08.255Z,17.18
2023-05-03T13:42:37.490Z,17.25
2023-05-03T13:45:06.826Z,17.35
2023-05-03T13:47:53.553Z,17.56
2023-05-03T13:50:26.051Z,17.74
2023-05-03T13:52:57.656Z,17.97
2023-05-03T13:55:27.100Z,18.51
2023-05-03T13:57:56.404Z,19.06
2023-05-03T14:00:25.134Z,19.48
2023-05-03T14:02:55.671Z,19.97
2023-05-03T14:05:24.587Z,20.31
2023-05-03T14:07:53.656Z,20.32
2023-05-03T14:10:23.882Z,20.30
2023-05-03T14:12:53.301Z,20.34
2023-05-03T14:15:22.309Z,20.15
2023-05-03T14:17:51.423Z,20.05
2023-05-03T14:20:20.632Z,19.96
2023-05-03T14:22:50.733Z,19.96
2023-05-03T14:25:19.679Z,20.05
2023-05-03T14:27:50.121Z,20.12
2023-05-03T14:30:19.102Z,20.16
2023-05-03T14:32:48.251Z,19.96
2023-05-03T14:35:18.377Z,20.08
2023-05-03T14:37:47.771Z,20.23
2023-05-03T14:40:17.739Z,20.08
2023-05-03T14:42:46.847Z,20.02
2023-05-03T14:45:16.977Z,19.74
2023-05-03T14:47:46.234Z,19.54
2023-05-03T14:50:15.703Z,19.39
2023-05-03T14:52:46.247Z,19.07
2023-05-03T14:55:14.989Z,18.79
2023-05-03T14:57:44.189Z,18.50
2023-05-03T15:00:15.080Z,18.12
2023-05-03T15:02:46.798Z,18.09
2023-05-03T15:05:15.715Z,17.89
2023-05-03T15:07:44.924Z,17.71
2023-05-03T15:10:13.646Z,17.72
2023-05-03T15:12:43.101Z,17.44
2023-05-03T15:15:12.306Z,17.47
2023-05-03T15:17:41.405Z,17.58
2023-05-03T15:20:13.915Z,17.75
2023-05-03T15:22:43.216Z,17.99
2023-05-03T15:25:12.184Z,18.29
2023-05-03T15:27:41.413Z,18.62
2023-05-03T15:30:12.270Z,18.74
2023-05-03T15:32:42.879Z,19.01
2023-05-03T15:35:13.239Z,19.28
2023-05-03T15:37:42.482Z,19.49
2023-05-03T15:40:11.942Z,19.87
2023-05-03T15:42:41.255Z,20.32
2023-05-03T15:45:10.935Z,20.89
2023-05-03T15:47:40.219Z,21.44
2023-05-03T15:50:09.551Z,21.98
2023-05-03T15:52:40.598Z,22.37
2023-05-03T15:55:10.236Z,22.53
2023-05-03T15:57:39.788Z,22.65
2023-05-03T16:00:11.807Z,22.53
2023-05-03T16:02:41.241Z,22.35
2023-05-03T16:05:11.177Z,22.15
2023-05-03T16:07:41.840Z,21.87
2023-05-03T16:10:11.098Z,21.69
2023-05-03T16:12:40.918Z,21.71
2023-05-03T16:15:12.349Z,21.75
2023-05-03T16:17:41.650Z,21.90
2023-05-03T16:20:11.686Z,21.88
2023-05-03T16:22:42.383Z,21.93
2023-05-03T16:25:11.724Z,21.92
2023-05-03T16:27:40.978Z,21.63
2023-05-03T16:30:10.990Z,21.61
2023-05-03T16:32:40.533Z,21.25
2023-05-03T16:35:09.851Z,20.96
2023-05-03T16:37:40.783Z,20.80
2023-05-03T16:40:11.721Z,20.59
2023-05-03T16:42:42.739Z,20.46
2023-05-03T16:45:13.063Z,20.08
2023-05-03T16:47:42.298Z,19.78
2023-05-03T16:50:11.225Z,19.67
2023-05-03T16:52:41.109Z,19.50
2023-05-03T16:55:12.577Z,19.24
2023-05-03T16:57:45.105Z,19.03
2023-05-03T17:00:16.945Z,18.83
2023-05-03T17:02:46.495Z,18.62
2023-05-03T17:05:15.377Z,18.43
2023-05-03T17:07:47.615Z,18.24
2023-05-03T17:10:17.972Z,18.04
2023-05-03T17:12:48.754Z,17.77
2023-05-03T17:15:17.759Z,17.43
2023-05-03T17:17:47.078Z,17.36
2023-05-03T17:20:16.539Z,17.21
2023-05-03T17:22:48.412Z,17.02
2023-05-03T17:25:19.276Z,16.80
2023-05-03T17:27:48.565Z,16.66
2023-05-03T17:30:20.799Z,16.53
2023-05-03T17:32:50.590Z,16.32
2023-05-03T17:35:19.453Z,16.16
2023-05-03T17:37:49.074Z,16.03
2023-05-03T17:40:21.909Z,15.83
2023-05-03T17:42:51.697Z,15.57
2023-05-03T17:45:22.682Z,15.50
2023-05-03T17:47:53.078Z,15.36
2023-05-03T17:50:21.877Z,15.26
2023-05-03T17:52:51.543Z,15.15
2023-05-03T17:55:23.880Z,15.05
2023-05-03T17:57:53.658Z,14.85
2023-05-03T18:00:28.016Z,14.72
2023-05-03T18:02:58.585Z,14.56
2023-05-03T18:05:28.045Z,14.45
2023-05-03T18:07:59.965Z,14.33
2023-05-03T18:10:30.460Z,14.22
2023-05-03T18:13:00.821Z,14.08
2023-05-03T18:15:29.737Z,13.94
2023-05-03T18:17:59.007Z,13.81
2023-05-03T18:20:28.453Z,13.68
2023-05-03T18:22:57.504Z,13.56
2023-05-03T18:25:27.095Z,13.44
2023-05-03T18:27:58.262Z,13.35
2023-05-03T18:30:28.408Z,13.21
2023-05-03T18:33:00.369Z,13.09
2023-05-03T18:35:31.049Z,12.95
2023-05-03T18:38:00.754Z,12.84
2023-05-03T18:40:30.762Z,12.74
2023-05-03T18:43:01.413Z,12.62
2023-05-03T18:45:30.659Z,12.50
2023-05-03T18:48:01.071Z,12.39
2023-05-03T18:50:29.856Z,12.31
2023-05-03T18:52:59.033Z,12.18
2023-05-03T18:55:27.832Z,12.06
2023-05-03T18:57:59.663Z,11.90
2023-05-03T19:00:31.643Z,11.75
2023-05-03T19:03:03.176Z,11.61
2023-05-03T19:05:32.122Z,11.50
2023-05-03T19:08:01.226Z,11.41
2023-05-03T19:10:32.341Z,11.32
2023-05-03T19:13:03.022Z,11.18
2023-05-03T19:15:36.968Z,11.02
2023-05-03T19:18:06.498Z,10.97
2023-05-03T19:20:35.472Z,10.88
2023-05-03T19:23:04.816Z,10.78
2023-05-03T19:25:35.131Z,10.59
2023-05-03T19:28:06.794Z,10.43
2023-05-03T19:30:41.290Z,10.33
2023-05-03T19:33:10.636Z,10.29
2023-05-03T19:35:40.794Z,10.29
2023-05-03T19:38:10.710Z,10.23
2023-05-03T19:40:39.780Z,10.09
2023-05-03T19:43:08.999Z,9.97
2023-05-03T19:45:43.958Z,9.74
2023-05-03T19:48:14.608Z,9.62
2023-05-03T19:50:44.728Z,9.50
2023-05-03T19:53:13.913Z,9.43
2023-05-03T19:55:42.928Z,9.26
2023-05-03T19:58:12.151Z,9.18
2023-05-03T20:00:40.952Z,9.06
2023-05-03T20:03:12.117Z,8.90
2023-05-03T20:05:41.327Z,8.77
2023-05-03T20:08:10.672Z,8.67
2023-05-03T20:10:39.909Z,8.59
2023-05-03T20:13:11.547Z,8.54
2023-05-03T20:15:41.466Z,8.49
2023-05-03T20:18:12.049Z,8.41
2023-05-03T20:20:43.184Z,8.27
2023-05-03T20:23:12.949Z,8.21
2023-05-03T20:25:43.611Z,8.13
2023-05-03T20:28:16.751Z,8.06
2023-05-03T20:30:45.736Z,8.02
2023-05-03T20:33:16.464Z,7.96
2023-05-03T20:35:45.380Z,7.91
2023-05-03T20:38:14.480Z,7.80
2023-05-03T20:40:43.579Z,7.73
2023-05-03T20:43:14.730Z,7.65
2023-05-03T20:45:44.432Z,7.59
2023-05-03T20:48:14.654Z,7.42
2023-05-03T20:50:45.024Z,7.43
2023-05-03T20:53:14.173Z,7.37
2023-05-03T20:55:43.145Z,7.34
2023-05-03T20:58:15.315Z,7.24
2023-05-03T21:00:44.260Z,7.16
2023-05-03T21:03:13.375Z,7.12
2023-05-03T21:05:44.942Z,7.06
2023-05-03T21:08:14.157Z,7.00
2023-05-03T21:10:43.101Z,6.93
2023-05-03T21:13:12.372Z,6.86
2023-05-03T21:15:42.500Z,6.79
2023-05-03T21:18:11.818Z,6.73
2023-05-03T21:20:40.584Z,6.67
2023-05-03T21:23:10.994Z,6.60
2023-05-03T21:25:39.867Z,6.55
2023-05-03T21:28:08.983Z,6.37
2023-05-03T21:30:38.168Z,6.29
2023-05-03T21:33:07.306Z,6.30
2023-05-03T21:35:38.621Z,6.24
2023-05-03T21:38:07.923Z,6.17
2023-05-03T21:40:38.054Z,6.10
2023-05-03T21:43:09.281Z,6.00
2023-05-03T21:45:38.266Z,5.98
2023-05-03T21:48:07.503Z,5.90
2023-05-03T21:50:38.628Z,5.79
2023-05-03T21:53:08.013Z,5.83
2023-05-03T21:55:38.134Z,5.80
2023-05-03T21:58:07.331Z,5.71
2023-05-03T22:00:36.385Z,5.60
2023-05-03T22:03:05.755Z,5.52
2023-05-03T22:05:34.616Z,5.46
2023-05-03T22:08:03.662Z,5.25
2023-05-03T22:10:32.526Z,5.34
2023-05-03T22:13:03.017Z,5.37
2023-05-03T22:15:32.103Z,5.17
2023-05-03T22:18:01.298Z,5.04
2023-05-03T22:20:30.470Z,4.99
2023-05-03T22:22:59.535Z,4.93
2023-05-03T22:25:32.090Z,4.95
2023-05-03T22:28:03.074Z,4.84
2023-05-03T22:30:32.087Z,4.74
2023-05-03T22:33:01.290Z,4.77
2023-05-03T22:35:30.218Z,4.69
2023-05-03T22:37:59.835Z,4.82
2023-05-03T22:40:28.771Z,4.75
2023-05-03T22:42:57.857Z,4.71
2023-05-03T22:45:28.056Z,4.55
2023-05-03T22:47:57.293Z,4.54
2023-05-03T22:50:26.152Z,4.36
2023-05-03T22:52:55.335Z,4.38
2023-05-03T22:55:24.080Z,4.40
2023-05-03T22:57:53.266Z,4.33
2023-05-03T23:00:22.452Z,4.30
2023-05-03T23:02:53.039Z,4.18
2023-05-03T23:05:22.261Z,4.15
2023-05-03T23:07:51.344Z,4.09
2023-05-03T23:10:20.196Z,4.13
2023-05-03T23:12:50.149Z,4.18
2023-05-03T23:15:19.197Z,4.09
2023-05-03T23:17:48.305Z,4.09
2023-05-03T23:20:18.603Z,4.06
2023-05-03T23:22:48.316Z,4.05
2023-05-03T23:25:17.236Z,4.02
2023-05-03T23:27:46.732Z,4.00
2023-05-03T23:30:15.982Z,3.91
2023-05-03T23:32:46.722Z,3.83
2023-05-03T23:35:16.255Z,3.83
2023-05-03T23:37:47.103Z,3.75
2023-05-03T23:40:15.932Z,3.71
2023-05-03T23:42:46.403Z,3.69
2023-05-03T23:45:15.153Z,3.68
2023-05-03T23:47:44.366Z,3.64
2023-05-03T23:50:13.106Z,3.59
2023-05-03T23:52:42.796Z,3.58
2023-05-03T23:55:13.235Z,3.46
2023-05-03T23:57:42.402Z,3.48
